Gwynedd, PA (19436)

12:39 PM EST on December 09, 2016 (GMT -0500)
Hunt Club Apartments | | Change Station

Elev 361 ft 40.21 °N, 75.23 °W | Updated 6 seconds ago

Overcast
Overcast
35.4 °F
Feels Like 30 °F
N
6.8
Wind Variable Wind from West
Gusts 15.0 mph

Today
High -- | Low -- °F
--% Chance of Precip.
Yesterday
High -- | Low -- °F
Precip. -- in
Pressure 30.18 in
Visibility 10.0 miles
Clouds Mostly Cloudy 4800 ft
Windchill 30 °F
Dew Point 19 °F
Humidity 51%
Rainfall 0.00 in
Snow Depth Not available.
7:12 AM 4:35 PM
Waxing Gibbous, 75% visible
METAR KLOM 091715Z AUTO 30010G17KT 280V340 10SM BKN048 01/M07 A3018 RMK AO1
Pressure 30.18 in
Visibility 10.0 miles
Clouds Mostly Cloudy 4800 ft
Windchill 30 °F
Dew Point 19 °F
Humidity 51%
Rainfall 0.00 in
Snow Depth Not available.
7:12 AM 4:35 PM
Waxing Gibbous, 75% visible
METAR KLOM 091715Z AUTO 30010G17KT 280V340 10SM BKN048 01/M07 A3018 RMK AO1

10-Day Weather Forecast

Almanac

Astronomy

Dec. 09, 2016 Rise Set
Actual Time
Civil Twilight
Nautical Twilight
Astronomical Twilight
Moon
Length of Visible Light
Length of Day
Tomorrow will be .
, % of the Moon is Illuminated

Today's Extremes

State Highs State Lows

Community

WunderPhotos

Upload Photos

1,956,462 photos uploaded!

WunderBlog® & News

Nearby

Air Quality

  Air Quality AQ Index Pollutant
Not available.

Snow Depth

Station Depth Elevation

Earthquake Activity

City Distance Mag. Time & Date
Minimum magnitude displayed is 2.5.

Coastal Water Temperatures

Place Temperature

Stations

Nearby Weather Stations

Station Location Temp. Windchill Dew Point Humidity Wind Precip. Elev Updated Type
                   

Watches & Warnings

There are currently no watches in effect.